createdAt,value
2019-06-18T00:01:57.005Z,20.93
2019-06-18T00:06:53.165Z,20.81
2019-06-18T00:11:51.058Z,20.87
2019-06-18T00:16:47.029Z,20.82
2019-06-18T00:21:42.873Z,20.70
2019-06-18T00:26:38.683Z,20.69
2019-06-18T00:31:34.739Z,20.56
2019-06-18T00:36:31.968Z,20.60
2019-06-18T00:41:27.993Z,20.52
2019-06-18T00:46:23.380Z,20.44
2019-06-18T00:51:19.655Z,20.51
2019-06-18T00:56:17.276Z,20.43
2019-06-18T01:01:12.573Z,20.41
2019-06-18T01:06:09.678Z,20.40
2019-06-18T01:11:06.901Z,20.21
2019-06-18T01:16:15.787Z,20.25
2019-06-18T01:21:02.219Z,20.24
2019-06-18T01:25:57.934Z,20.03
2019-06-18T01:30:53.748Z,20.18
2019-06-18T01:35:49.466Z,20.24
2019-06-18T01:40:45.356Z,20.19
2019-06-18T01:45:43.358Z,20.03
2019-06-18T01:50:39.335Z,20.19
2019-06-18T01:55:35.468Z,20.16
2019-06-18T02:00:33.327Z,20.04
2019-06-18T02:05:29.834Z,19.95
2019-06-18T02:10:25.418Z,20.02
2019-06-18T02:15:23.226Z,19.99
2019-06-18T02:20:20.056Z,19.88
2019-06-18T02:25:15.549Z,19.88
2019-06-18T02:30:13.866Z,19.54
2019-06-18T02:35:09.798Z,19.49
2019-06-18T02:40:06.950Z,19.63
2019-06-18T02:45:03.707Z,19.41
2019-06-18T02:50:03.204Z,19.27
2019-06-18T02:54:58.081Z,19.16
2019-06-18T02:59:54.842Z,19.30
2019-06-18T03:04:52.517Z,19.36
2019-06-18T03:09:49.276Z,19.34
2019-06-18T03:14:44.837Z,19.19
2019-06-18T03:19:42.497Z,19.19
2019-06-18T03:24:39.290Z,19.36
2019-06-18T03:29:36.114Z,19.36
2019-06-18T03:34:36.080Z,19.36
2019-06-18T03:39:33.018Z,19.22
2019-06-18T03:44:28.517Z,19.15
2019-06-18T03:49:24.337Z,19.24
2019-06-18T03:54:22.736Z,19.14
2019-06-18T03:59:19.110Z,19.02
2019-06-18T04:04:14.984Z,18.88
2019-06-18T04:09:13.128Z,18.90
2019-06-18T04:14:08.404Z,18.83
2019-06-18T04:19:04.050Z,18.71
2019-06-18T04:23:59.859Z,19.04
2019-06-18T04:28:56.004Z,19.22
2019-06-18T04:33:52.719Z,19.63
2019-06-18T04:38:52.331Z,20.36
2019-06-18T04:43:48.907Z,21.22
2019-06-18T04:48:46.276Z,22.20
2019-06-18T04:53:43.108Z,22.47
2019-06-18T04:58:38.830Z,22.22
2019-06-18T05:03:34.643Z,22.22
2019-06-18T05:08:33.176Z,21.99
2019-06-18T05:13:27.983Z,21.58
2019-06-18T05:18:35.662Z,21.24
2019-06-18T05:23:23.351Z,21.30
2019-06-18T05:28:23.018Z,22.60
2019-06-18T05:33:18.578Z,22.98
2019-06-18T05:38:15.698Z,23.37
2019-06-18T05:43:13.615Z,23.06
2019-06-18T05:48:08.311Z,22.53
2019-06-18T05:53:05.365Z,23.08
2019-06-18T05:58:02.546Z,23.27
2019-06-18T06:02:58.120Z,22.93
2019-06-18T06:07:53.467Z,22.14
2019-06-18T06:12:49.892Z,21.58
2019-06-18T06:17:44.965Z,21.64
2019-06-18T06:22:42.400Z,21.58
2019-06-18T06:27:37.807Z,21.64
2019-06-18T06:32:34.863Z,21.77
2019-06-18T06:37:32.787Z,21.79
2019-06-18T06:42:28.281Z,21.96
2019-06-18T06:47:24.160Z,22.07
2019-06-18T06:52:22.923Z,22.36
2019-06-18T06:57:18.474Z,22.28
2019-06-18T07:02:14.364Z,22.45
2019-06-18T07:07:13.200Z,22.50
2019-06-18T07:12:08.831Z,22.75
2019-06-18T07:17:04.942Z,22.88
2019-06-18T07:22:03.517Z,23.12
2019-06-18T07:26:58.853Z,23.34
2019-06-18T07:31:54.979Z,23.50
2019-06-18T07:36:52.885Z,23.78
2019-06-18T07:41:48.947Z,24.05
2019-06-18T07:46:46.395Z,25.08
2019-06-18T07:51:47.135Z,27.32
2019-06-18T07:56:46.030Z,28.78
2019-06-18T08:01:44.202Z,29.13
2019-06-18T08:06:43.817Z,30.40
2019-06-18T08:11:42.730Z,31.06
2019-06-18T08:16:39.579Z,30.34
2019-06-18T08:21:36.431Z,31.97
2019-06-18T08:26:34.365Z,32.46
2019-06-18T08:31:32.778Z,32.31
2019-06-18T08:36:29.247Z,32.78
2019-06-18T08:41:27.699Z,31.71
2019-06-18T08:46:23.498Z,30.69
2019-06-18T08:51:19.415Z,30.99
2019-06-18T08:56:15.613Z,31.28
2019-06-18T09:01:13.130Z,30.97
2019-06-18T09:06:08.716Z,31.33
2019-06-18T09:11:05.075Z,31.55
2019-06-18T09:16:04.360Z,32.82
2019-06-18T09:21:07.842Z,33.32
2019-06-18T09:26:00.271Z,31.12
2019-06-18T09:30:56.000Z,31.78
2019-06-18T09:35:53.542Z,31.85
2019-06-18T09:40:49.322Z,30.85
2019-06-18T09:45:46.888Z,31.29
2019-06-18T09:50:43.042Z,30.75
2019-06-18T09:55:38.981Z,31.18
2019-06-18T10:00:35.215Z,31.43
2019-06-18T10:05:32.308Z,31.92
2019-06-18T10:10:28.204Z,30.90
2019-06-18T10:15:23.885Z,31.97
2019-06-18T10:20:19.229Z,31.03
2019-06-18T10:25:15.574Z,31.40
2019-06-18T10:30:14.152Z,31.59
2019-06-18T10:35:13.038Z,31.36
2019-06-18T10:40:08.646Z,31.77
2019-06-18T10:45:04.444Z,31.39
2019-06-18T10:50:00.440Z,30.87
2019-06-18T10:54:56.311Z,30.51
2019-06-18T10:59:53.321Z,30.25
2019-06-18T11:04:48.241Z,30.19
2019-06-18T11:09:45.309Z,31.05
2019-06-18T11:14:41.648Z,31.37
2019-06-18T11:19:37.300Z,30.91
2019-06-18T11:24:34.127Z,30.18
2019-06-18T11:29:33.124Z,31.55
2019-06-18T11:34:29.505Z,32.03
2019-06-18T11:39:26.135Z,31.61
2019-06-18T11:44:23.293Z,30.88
2019-06-18T11:49:18.356Z,30.37
2019-06-18T11:54:14.889Z,31.46
2019-06-18T11:59:12.922Z,31.03
2019-06-18T12:04:09.497Z,31.21
2019-06-18T12:09:06.251Z,31.71
2019-06-18T12:14:04.271Z,31.76
2019-06-18T12:18:59.261Z,32.34
2019-06-18T12:23:54.109Z,30.70
2019-06-18T12:28:48.565Z,30.39
2019-06-18T12:33:44.915Z,30.88
2019-06-18T12:38:43.236Z,31.02
2019-06-18T12:43:37.921Z,30.85
2019-06-18T12:48:35.667Z,30.97
2019-06-18T12:53:30.963Z,30.66
2019-06-18T12:58:26.729Z,30.88
2019-06-18T13:03:23.238Z,31.31
2019-06-18T13:08:18.765Z,30.78
2019-06-18T13:13:15.828Z,30.61
2019-06-18T13:18:13.237Z,31.49
2019-06-18T13:23:22.648Z,32.36
2019-06-18T13:28:12.887Z,33.11
2019-06-18T13:33:08.493Z,32.96
2019-06-18T13:38:05.678Z,32.58
2019-06-18T13:43:02.705Z,31.54
2019-06-18T13:47:57.861Z,29.75
2019-06-18T13:52:53.961Z,29.34
2019-06-18T13:57:48.920Z,29.49
2019-06-18T14:02:44.694Z,29.42
2019-06-18T14:07:42.956Z,29.87
2019-06-18T14:12:38.470Z,29.87
2019-06-18T14:17:34.551Z,29.61
2019-06-18T14:22:32.798Z,29.65
2019-06-18T14:27:28.156Z,29.72
2019-06-18T14:32:26.522Z,29.53
2019-06-18T14:37:23.441Z,29.71
2019-06-18T14:42:22.812Z,29.76
2019-06-18T14:47:18.270Z,29.88
2019-06-18T14:52:14.120Z,29.94
2019-06-18T14:57:12.617Z,29.94
2019-06-18T15:02:08.081Z,30.05
2019-06-18T15:07:04.231Z,30.10
2019-06-18T15:12:02.482Z,29.72
2019-06-18T15:16:57.974Z,29.78
2019-06-18T15:21:54.016Z,29.57
2019-06-18T15:26:52.566Z,29.59
2019-06-18T15:31:48.199Z,29.71
2019-06-18T15:36:44.274Z,29.66
2019-06-18T15:41:42.619Z,29.44
2019-06-18T15:46:38.104Z,29.47
2019-06-18T15:51:34.934Z,28.91
2019-06-18T15:56:30.530Z,28.81
2019-06-18T16:01:26.485Z,28.88
2019-06-18T16:06:22.804Z,28.94
2019-06-18T16:11:18.997Z,28.94
2019-06-18T16:16:14.785Z,28.66
2019-06-18T16:21:10.583Z,28.84
2019-06-18T16:26:06.324Z,28.48
2019-06-18T16:31:03.461Z,28.42
2019-06-18T16:35:59.140Z,28.41
2019-06-18T16:40:54.932Z,28.33
2019-06-18T16:45:52.921Z,28.27
2019-06-18T16:50:49.126Z,28.15
2019-06-18T16:55:44.788Z,28.25
2019-06-18T17:00:43.320Z,28.15
2019-06-18T17:05:38.892Z,28.22
2019-06-18T17:10:34.888Z,28.11
2019-06-18T17:15:32.573Z,28.22
2019-06-18T17:20:28.098Z,28.00
2019-06-18T17:25:24.124Z,27.93
2019-06-18T17:30:20.120Z,27.86
2019-06-18T17:35:16.641Z,27.83
2019-06-18T17:40:12.531Z,27.96
2019-06-18T17:45:09.732Z,27.93
2019-06-18T17:50:05.788Z,27.98
2019-06-18T17:55:02.369Z,27.96
2019-06-18T17:59:58.215Z,27.92
2019-06-18T18:04:54.130Z,27.86
2019-06-18T18:09:50.286Z,27.96
2019-06-18T18:14:46.428Z,28.07
2019-06-18T18:19:44.025Z,28.00
2019-06-18T18:24:39.670Z,27.86
2019-06-18T18:29:36.645Z,27.85
2019-06-18T18:34:32.865Z,27.85
2019-06-18T18:39:28.614Z,27.68
2019-06-18T18:44:24.456Z,27.68
2019-06-18T18:49:23.152Z,27.58
2019-06-18T18:54:19.717Z,27.45
2019-06-18T18:59:15.649Z,27.44
2019-06-18T19:04:12.688Z,27.39
2019-06-18T19:09:08.283Z,27.27
2019-06-18T19:14:05.576Z,27.27
2019-06-18T19:19:02.875Z,27.15
2019-06-18T19:23:58.739Z,27.14
2019-06-18T19:28:54.708Z,27.00
2019-06-18T19:33:52.598Z,26.93
2019-06-18T19:38:47.981Z,26.75
2019-06-18T19:43:43.822Z,26.66
2019-06-18T19:48:39.933Z,26.62
2019-06-18T19:53:36.681Z,26.65
2019-06-18T19:58:32.924Z,26.58
2019-06-18T20:03:28.891Z,26.51
2019-06-18T20:08:24.907Z,26.38
2019-06-18T20:13:22.616Z,26.40
2019-06-18T20:18:18.291Z,26.23
2019-06-18T20:23:15.487Z,26.06
2019-06-18T20:28:12.284Z,26.07
2019-06-18T20:33:07.897Z,25.99
2019-06-18T20:38:03.895Z,25.84
2019-06-18T20:42:59.650Z,25.99
2019-06-18T20:47:55.554Z,25.95
2019-06-18T20:52:52.988Z,25.80
2019-06-18T20:57:48.932Z,25.59
2019-06-18T21:02:45.049Z,25.40
2019-06-18T21:07:43.587Z,25.33
2019-06-18T21:12:39.028Z,25.31
2019-06-18T21:17:34.932Z,25.29
2019-06-18T21:22:30.787Z,25.29
2019-06-18T21:27:26.647Z,25.18
2019-06-18T21:32:23.218Z,25.04
2019-06-18T21:37:18.978Z,24.89
2019-06-18T21:42:15.757Z,24.84
2019-06-18T21:47:12.711Z,24.85
2019-06-18T21:52:09.498Z,24.86
2019-06-18T21:57:05.879Z,24.78
2019-06-18T22:02:02.655Z,24.73
2019-06-18T22:06:58.791Z,24.70
2019-06-18T22:11:54.612Z,24.53
2019-06-18T22:16:53.331Z,24.53
2019-06-18T22:21:48.457Z,24.50
2019-06-18T22:26:45.379Z,24.40
2019-06-18T22:31:42.421Z,24.24
2019-06-18T22:36:37.909Z,24.28
2019-06-18T22:41:33.766Z,24.30
2019-06-18T22:46:33.075Z,24.26
2019-06-18T22:51:29.182Z,24.14
2019-06-18T22:56:26.022Z,24.16
2019-06-18T23:01:22.334Z,24.01
2019-06-18T23:06:19.052Z,23.83
2019-06-18T23:11:14.953Z,23.50
2019-06-18T23:16:12.684Z,23.48
2019-06-18T23:21:07.925Z,23.48
2019-06-18T23:26:03.541Z,23.36
2019-06-18T23:30:59.549Z,22.94
2019-06-18T23:41:06.134Z,22.78
2019-06-18T23:46:03.117Z,22.50
2019-06-18T23:50:58.202Z,22.48
2019-06-18T23:55:53.877Z,22.41
